Nearby METAR Reports

 

EHGG - Groningen/Eelde, Netherlands
Distance from station: WZW 29km
Updated: 23/08/2019 00:55
Gedeeltelijk bewolkt
Gedeeltelijk bewolkt
 Wind van Z
Wind: Z 2 km/h
Temperatuur: 11°C
Dauwpunt: 9°C
Vochtigheid: 88%
Barometer: 1025 hPa
Clouds: Gedeeltelijk bewolkt
Visibility: 10 km
2019/08/22 22:55 EHGG 222255Z AUTO 19001KT 9999 NSC 11/09 Q1025
ETNT - Wittmundhaven(Ga, Germany
Distance from station: ONO 57km
Updated: 23/08/2019 00:20
Few Clouds
Few Clouds
 Wind van Z
Wind: Z 4 km/h
Temperatuur: 14°C
Dauwpunt: 12°C
Vochtigheid: 88%
Barometer: 1025 hPa
Clouds: Few Clouds
Visibility: 10 km
Cloud details: Few Clouds 11278 m
2019/08/22 22:20 ETNT 222220Z 17002KT 9999 FEW370 14/12 Q1025 BLU+
 
ETWM - Meppen, Germany
Distance from station: ZZO 66km
Updated: 23/08/2019 00:20

 Wind van calm
Wind: Kalm
Temperatuur: 13°C
Dauwpunt: 11°C
Vochtigheid: 88%
Barometer: 1025 hPa
2019/08/22 22:20 ETWM 222220Z AUTO 00000KT //// // ////// 13/11 Q1025 ///
EHMA - Awg-1 Sea, Netherlands
Distance from station: WNW 70km
Updated: 23/08/2019 00:55
Helder
Helder
 Wind van ZW
Wind: ZW 17 km/h
Temperatuur: 17°C
Dauwpunt: 13°C
Vochtigheid: 77%
Barometer: 1024 hPa
Clouds: Helder
2019/08/22 22:55 EHMA 222255Z AUTO 22009KT //// // NCD 17/13 Q1024 RE// W///H///
 
EHLW - Leeuwarden Rnlaf, Netherlands
Distance from station: W 79km
Updated: 23/08/2019 00:55
Meestal bewolkt
Meestal bewolkt
 Wind van Z
Wind: Z 9 km/h
Temperatuur: 13°C
Dauwpunt: 10°C
Vochtigheid: 82%
Barometer: 1025 hPa
Clouds: Meestal bewolkt
Visibility: 10 km
Cloud details: Meestal bewolkt 10058 m
2019/08/22 22:55 EHLW 222255Z AUTO 18005KT 9999 BKN330 13/10 Q1025 BLU